Wetterdaten: Woche 29.07.19 - 04.08.19 (KW31)
Datum Zeit Temp. Aussen Temp. o. S. +5cm Feuchte Auss Luftdruck Regen Sonnenschein Regendauer Solar Windben Empfang
29.07.2019 00:00 17,7 C 16,7 C 16,7 C 95 % 1009,8 hPa 0,0 l/m 0,00 h 0,00 h 0 W/m 3,2 km/h (1 Bft) 97,87 %
29.07.2019 01:00 17,6 C 16,6 C 16,6 C 95 % 1010,1 hPa 0,0 l/m 0,00 h 0,00 h 0 W/m 1,9 km/h (1 Bft) 97,77 %
29.07.2019 02:00 17,2 C 15,9 C 15,9 C 95 % 1010,2 hPa 0,0 l/m 0,00 h 0,00 h 0 W/m 0,2 km/h (0 Bft) 97,18 %
29.07.2019 03:00 16,7 C 15,3 C 15,0 C 96 % 1010,5 hPa 0,0 l/m 0,00 h 0,00 h 0 W/m 0,0 km/h (0 Bft) 97,50 %
29.07.2019 04:00 16,2 C 14,7 C 14,4 C 96 % 1010,6 hPa 0,0 l/m 0,00 h 0,00 h 0 W/m 0,0 km/h (0 Bft) 97,46 %
29.07.2019 05:00 15,9 C 15,0 C 15,0 C 97 % 1010,7 hPa 0,0 l/m 0,00 h 0,00 h 0 W/m 0,6 km/h (0 Bft) 97,51 %
29.07.2019 06:00 15,8 C 14,8 C 14,6 C 97 % 1010,9 hPa 0,0 l/m 0,00 h 0,00 h 11 W/m 1,4 km/h (1 Bft) 97,50 %
29.07.2019 07:00 15,6 C 15,7 C 15,3 C 97 % 1011,4 hPa 0,0 l/m 0,00 h 0,00 h 31 W/m 3,0 km/h (1 Bft) 96,97 %
29.07.2019 08:00 16,6 C 20,4 C 17,4 C 96 % 1011,8 hPa 0,0 l/m 0,10 h 0,00 h 83 W/m 5,6 km/h (1 Bft) 98,15 %
29.07.2019 09:00 20,2 C 24,6 C 25,8 C 81 % 1012,0 hPa 0,0 l/m 1,00 h 0,00 h 485 W/m 9,0 km/h (2 Bft) 97,86 %
29.07.2019 10:00 22,3 C 26,6 C 28,0 C 69 % 1012,2 hPa 0,0 l/m 1,00 h 0,00 h 654 W/m 12,3 km/h (3 Bft) 94,57 %
29.07.2019 11:00 24,2 C 29,0 C 29,4 C 61 % 1012,2 hPa 0,0 l/m 1,00 h 0,00 h 792 W/m 11,8 km/h (2 Bft) 97,09 %
29.07.2019 12:00 25,5 C 29,9 C 27,7 C 57 % 1012,1 hPa 0,0 l/m 1,00 h 0,00 h 870 W/m 11,8 km/h (2 Bft) 97,85 %
29.07.2019 13:00 26,3 C 30,8 C 32,0 C 54 % 1011,7 hPa 0,0 l/m 1,00 h 0,00 h 914 W/m 12,9 km/h (3 Bft) 98,07 %
29.07.2019 14:00 26,6 C 31,2 C 31,4 C 51 % 1011,5 hPa 0,0 l/m 1,00 h 0,00 h 907 W/m 13,8 km/h (3 Bft) 97,50 %
29.07.2019 15:00 27,2 C 31,4 C 26,9 C 49 % 1011,5 hPa 0,0 l/m 1,00 h 0,00 h 855 W/m 12,3 km/h (3 Bft) 97,83 %
29.07.2019 16:00 27,6 C 31,4 C 27,1 C 48 % 1011,4 hPa 0,0 l/m 1,00 h 0,00 h 738 W/m 11,7 km/h (2 Bft) 96,03 %
29.07.2019 17:00 27,7 C 30,5 C 27,1 C 47 % 1011,2 hPa 0,0 l/m 1,00 h 0,00 h 584 W/m 11,2 km/h (2 Bft) 97,54 %
29.07.2019 18:00 27,6 C 29,5 C 25,5 C 47 % 1011,0 hPa 0,0 l/m 1,00 h 0,00 h 408 W/m 9,8 km/h (2 Bft) 97,56 %
29.07.2019 19:00 26,9 C 26,3 C 24,1 C 48 % 1011,0 hPa 0,0 l/m 0,47 h 0,00 h 153 W/m 6,4 km/h (2 Bft) 98,86 %
29.07.2019 20:00 25,2 C 22,9 C 21,4 C 53 % 1011,2 hPa 0,0 l/m 0,00 h 0,00 h 28 W/m 0,3 km/h (0 Bft) 96,50 %
29.07.2019 21:00 23,0 C 19,9 C 18,7 C 61 % 1011,5 hPa 0,0 l/m 0,00 h 0,00 h 9 W/m 0,0 km/h (0 Bft) 97,00 %
29.07.2019 22:00 20,7 C 17,8 C 17,1 C 68 % 1011,9 hPa 0,0 l/m 0,00 h 0,00 h 0 W/m 0,0 km/h (0 Bft) 99,43 %
29.07.2019 23:00 19,0 C 16,5 C 16,0 C 73 % 1012,1 hPa 0,0 l/m 0,00 h 0,00 h 0 W/m 0,0 km/h (0 Bft) 96,72 %
30.07.2019 00:00 17,8 C 15,8 C 15,2 C 76 % 1012,0 hPa 0,0 l/m 0,00 h 0,00 h 0 W/m 0,0 km/h (0 Bft) 96,88 %
30.07.2019 01:00 17,1 C 15,6 C 15,0 C 80 % 1011,9 hPa 0,0 l/m 0,00 h 0,00 h 0 W/m 0,0 km/h (0 Bft) 97,87 %
30.07.2019 02:00 16,4 C 14,4 C 14,0 C 81 % 1011,9 hPa 0,0 l/m 0,00 h 0,00 h 0 W/m 0,0 km/h (0 Bft) 99,15 %
30.07.2019 03:00 15,7 C 14,0 C 13,6 C 84 % 1011,8 hPa 0,0 l/m 0,00 h 0,00 h 0 W/m 0,2 km/h (0 Bft) 95,23 %
30.07.2019 04:00 15,5 C 14,9 C 14,0 C 88 % 1011,5 hPa 0,0 l/m 0,00 h 0,00 h 0 W/m 1,0 km/h (0 Bft) 98,22 %
30.07.2019 05:00 15,7 C 14,6 C 13,9 C 89 % 1011,5 hPa 0,0 l/m 0,00 h 0,00 h 0 W/m 0,6 km/h (0 Bft) 98,29 %
30.07.2019 06:00 15,8 C 15,4 C 14,8 C 89 % 1011,6 hPa 0,0 l/m 0,00 h 0,00 h 13 W/m 2,8 km/h (1 Bft) 97,24 %
30.07.2019 07:00 16,7 C 17,0 C 16,4 C 90 % 1011,7 hPa 0,0 l/m 0,00 h 0,00 h 33 W/m 5,3 km/h (1 Bft) 97,87 %
30.07.2019 08:00 18,9 C 21,7 C 19,1 C 84 % 1011,5 hPa 0,0 l/m 0,10 h 0,00 h 90 W/m 12,7 km/h (3 Bft) 96,23 %
30.07.2019 09:00 22,8 C 26,9 C 28,5 C 71 % 1011,6 hPa 0,0 l/m 1,00 h 0,00 h 485 W/m 14,2 km/h (3 Bft) 98,65 %
30.07.2019 10:00 25,9 C 30,5 C 32,5 C 62 % 1011,3 hPa 0,0 l/m 1,00 h 0,00 h 651 W/m 12,0 km/h (2 Bft) 98,15 %
30.07.2019 11:00 28,5 C 33,2 C 33,6 C 54 % 1011,2 hPa 0,0 l/m 1,00 h 0,00 h 783 W/m 11,7 km/h (2 Bft) 96,33 %
30.07.2019 12:00 30,4 C 34,6 C 32,2 C 43 % 1011,3 hPa 0,0 l/m 1,00 h 0,00 h 868 W/m 15,0 km/h (3 Bft) 98,57 %
30.07.2019 13:00 31,2 C 34,6 C 35,0 C 42 % 1011,2 hPa 0,0 l/m 0,87 h 0,00 h 787 W/m 15,9 km/h (3 Bft) 97,86 %
30.07.2019 14:00 30,9 C 33,4 C 33,2 C 41 % 1010,9 hPa 0,0 l/m 0,80 h 0,00 h 765 W/m 19,0 km/h (3 Bft) 95,09 %
30.07.2019 15:00 30,6 C 30,9 C 30,2 C 43 % 1010,8 hPa 0,0 l/m 0,13 h 0,00 h 345 W/m 16,8 km/h (3 Bft) 99,38 %
30.07.2019 16:00 29,1 C 28,7 C 28,5 C 49 % 1011,2 hPa 0,0 l/m 0,00 h 0,00 h 222 W/m 15,0 km/h (3 Bft) 97,83 %
30.07.2019 17:00 27,8 C 27,4 C 27,1 C 50 % 1011,6 hPa 0,0 l/m 0,27 h 0,00 h 210 W/m 20,1 km/h (4 Bft) 96,01 %
30.07.2019 18:00 26,7 C 26,5 C 25,9 C 52 % 1011,5 hPa 0,0 l/m 0,13 h 0,00 h 157 W/m 14,6 km/h (3 Bft) 97,83 %
30.07.2019 19:00 26,5 C 26,0 C 25,5 C 52 % 1011,5 hPa 0,0 l/m 0,30 h 0,00 h 123 W/m 19,1 km/h (3 Bft) 98,79 %
30.07.2019 20:00 25,9 C 24,6 C 24,3 C 54 % 1011,6 hPa 0,0 l/m 0,00 h 0,00 h 41 W/m 12,0 km/h (2 Bft) 96,98 %
30.07.2019 21:00 24,7 C 23,1 C 22,9 C 55 % 1012,1 hPa 0,0 l/m 0,00 h 0,00 h 9 W/m 10,3 km/h (2 Bft) 95,38 %
30.07.2019 22:00 23,4 C 21,6 C 21,4 C 59 % 1012,5 hPa 0,0 l/m 0,00 h 0,00 h 0 W/m 5,6 km/h (1 Bft) 98,66 %
30.07.2019 23:00 22,2 C 20,3 C 20,2 C 63 % 1012,8 hPa 0,0 l/m 0,00 h 0,00 h 0 W/m 5,3 km/h (1 Bft) 98,22 %
31.07.2019 00:00 21,2 C 19,5 C 19,3 C 67 % 1013,1 hPa 0,0 l/m 0,00 h 0,00 h 0 W/m 4,2 km/h (1 Bft) 94,34 %
31.07.2019 01:00 20,2 C 18,4 C 17,6 C 70 % 1013,2 hPa 0,0 l/m 0,00 h 0,00 h 0 W/m 1,5 km/h (1 Bft) 99,50 %
31.07.2019 02:00 19,3 C 17,9 C 17,9 C 72 % 1013,4 hPa 0,0 l/m 0,00 h 0,00 h 0 W/m 5,2 km/h (1 Bft) 97,28 %
31.07.2019 03:00 18,9 C 18,0 C 17,8 C 73 % 1013,4 hPa 0,0 l/m 0,00 h 0,00 h 0 W/m 4,4 km/h (1 Bft) 96,54 %
31.07.2019 04:00 18,8 C 18,0 C 17,9 C 74 % 1013,6 hPa 0,0 l/m 0,00 h 0,00 h 0 W/m 7,2 km/h (2 Bft) 98,43 %
31.07.2019 05:00 18,9 C 17,8 C 17,8 C 72 % 1014,1 hPa 0,0 l/m 0,00 h 0,00 h 0 W/m 7,7 km/h (2 Bft) 96,51 %
31.07.2019 06:00 18,6 C 17,8 C 17,5 C 73 % 1014,6 hPa 0,0 l/m 0,00 h 0,00 h 19 W/m 5,4 km/h (1 Bft) 98,56 %
31.07.2019 07:00 18,4 C 17,9 C 17,4 C 75 % 1015,1 hPa 0,0 l/m 0,00 h 0,00 h 36 W/m 9,7 km/h (2 Bft) 97,16 %
31.07.2019 08:00 19,1 C 20,7 C 18,9 C 73 % 1015,2 hPa 0,0 l/m 0,17 h 0,00 h 126 W/m 18,3 km/h (3 Bft) 95,77 %
31.07.2019 09:00 21,0 C 22,5 C 22,7 C 68 % 1015,5 hPa 0,0 l/m 0,80 h 0,00 h 375 W/m 20,7 km/h (4 Bft) 99,07 %
31.07.2019 10:00 21,1 C 22,5 C 21,9 C 68 % 1015,7 hPa 0,0 l/m 0,60 h 0,00 h 332 W/m 16,3 km/h (3 Bft) 97,29 %
31.07.2019 11:00 21,7 C 22,8 C 22,2 C 67 % 1015,8 hPa 0,0 l/m 0,50 h 0,03 h 372 W/m 22,1 km/h (4 Bft) 97,86 %
31.07.2019 12:00 21,8 C 21,4 C 21,0 C 68 % 1016,0 hPa 0,0 l/m 0,23 h 0,17 h 318 W/m 18,4 km/h (3 Bft) 97,18 %
31.07.2019 13:00 22,7 C 25,1 C 24,2 C 65 % 1015,8 hPa 0,0 l/m 0,60 h 0,00 h 580 W/m 22,1 km/h (4 Bft) 96,46 %
31.07.2019 14:00 23,9 C 26,6 C 25,7 C 58 % 1015,7 hPa 0,0 l/m 0,87 h 0,00 h 650 W/m 22,0 km/h (4 Bft) 99,22 %
31.07.2019 15:00 25,3 C 28,0 C 25,6 C 54 % 1015,5 hPa 0,0 l/m 0,67 h 0,00 h 589 W/m 17,7 km/h (3 Bft) 96,93 %
31.07.2019 16:00 25,0 C 26,6 C 25,0 C 52 % 1015,5 hPa 0,0 l/m 0,63 h 0,00 h 470 W/m 19,0 km/h (3 Bft) 96,70 %
31.07.2019 17:00 24,2 C 24,1 C 23,6 C 54 % 1015,6 hPa 0,0 l/m 0,20 h 0,00 h 222 W/m 14,9 km/h (3 Bft) 98,54 %
31.07.2019 18:00 23,2 C 23,6 C 22,8 C 55 % 1015,7 hPa 0,0 l/m 0,43 h 0,00 h 204 W/m 15,4 km/h (3 Bft) 96,43 %
31.07.2019 19:00 23,2 C 22,6 C 22,3 C 56 % 1015,7 hPa 0,0 l/m 0,00 h 0,00 h 96 W/m 12,4 km/h (3 Bft) 97,73 %
31.07.2019 20:00 22,5 C 21,4 C 21,3 C 57 % 1016,1 hPa 0,0 l/m 0,00 h 0,00 h 43 W/m 11,3 km/h (2 Bft) 97,86 %
31.07.2019 21:00 21,4 C 19,6 C 19,8 C 61 % 1016,7 hPa 0,0 l/m 0,00 h 0,00 h 8 W/m 6,4 km/h (2 Bft) 96,94 %
31.07.2019 22:00 20,1 C 18,3 C 18,3 C 65 % 1017,1 hPa 0,0 l/m 0,00 h 0,00 h 0 W/m 5,4 km/h (1 Bft) 98,29 %
31.07.2019 23:00 19,1 C 17,6 C 17,5 C 68 % 1017,4 hPa 0,0 l/m 0,00 h 0,00 h 0 W/m 8,3 km/h (2 Bft) 97,08 %
01.08.2019 00:00 18,3 C 16,9 C 17,0 C 71 % 1017,5 hPa 0,0 l/m 0,00 h 0,00 h 0 W/m 7,8 km/h (2 Bft) 96,73 %
01.08.2019 01:00 17,5 C 15,8 C 15,6 C 74 % 1017,7 hPa 0,0 l/m 0,00 h 0,00 h 0 W/m 4,2 km/h (1 Bft) 98,81 %
01.08.2019 02:00 16,5 C 14,9 C 14,9 C 79 % 1017,6 hPa 0,0 l/m 0,00 h 0,00 h 0 W/m 3,9 km/h (1 Bft) 98,59 %
01.08.2019 03:00 15,8 C 14,5 C 14,5 C 81 % 1017,4 hPa 0,0 l/m 0,00 h 0,00 h 0 W/m 3,8 km/h (1 Bft) 95,01 %
01.08.2019 04:00 15,7 C 15,0 C 15,0 C 82 % 1017,3 hPa 0,0 l/m 0,00 h 0,00 h 0 W/m 6,1 km/h (2 Bft) 99,14 %
01.08.2019 05:00 15,7 C 14,5 C 14,3 C 82 % 1017,3 hPa 0,0 l/m 0,00 h 0,00 h 0 W/m 3,5 km/h (1 Bft) 97,43 %
01.08.2019 06:00 15,2 C 14,2 C 14,0 C 84 % 1017,3 hPa 0,0 l/m 0,00 h 0,00 h 15 W/m 2,7 km/h (1 Bft) 97,73 %
01.08.2019 07:00 15,4 C 15,5 C 15,1 C 84 % 1017,4 hPa 0,0 l/m 0,00 h 0,00 h 47 W/m 8,8 km/h (2 Bft) 97,86 %
01.08.2019 08:00 17,2 C 18,8 C 17,6 C 81 % 1017,4 hPa 0,0 l/m 0,03 h 0,00 h 114 W/m 11,1 km/h (2 Bft) 96,86 %
01.08.2019 09:00 20,2 C 23,6 C 23,8 C 74 % 1017,2 hPa 0,0 l/m 0,87 h 0,00 h 438 W/m 13,0 km/h (3 Bft) 97,65 %
01.08.2019 10:00 22,3 C 25,9 C 27,0 C 67 % 1017,1 hPa 0,0 l/m 1,00 h 0,00 h 644 W/m 18,5 km/h (3 Bft) 96,80 %
01.08.2019 11:00 24,0 C 27,5 C 27,1 C 62 % 1016,9 hPa 0,0 l/m 0,97 h 0,00 h 764 W/m 18,8 km/h (3 Bft) 98,71 %
01.08.2019 12:00 25,1 C 27,7 C 25,6 C 58 % 1016,6 hPa 0,0 l/m 0,67 h 0,00 h 625 W/m 14,7 km/h (3 Bft) 98,16 %
01.08.2019 13:00 24,8 C 25,8 C 25,7 C 58 % 1016,4 hPa 0,0 l/m 0,10 h 0,00 h 308 W/m 14,8 km/h (3 Bft) 94,59 %
01.08.2019 14:00 24,5 C 25,1 C 25,3 C 59 % 1016,5 hPa 0,0 l/m 0,30 h 0,00 h 327 W/m 13,6 km/h (3 Bft) 99,71 %
01.08.2019 15:00 24,2 C 26,5 C 24,7 C 60 % 1016,3 hPa 0,0 l/m 0,53 h 0,00 h 419 W/m 10,3 km/h (2 Bft) 98,29 %
01.08.2019 16:00 26,2 C 28,7 C 26,1 C 54 % 1016,0 hPa 0,0 l/m 0,67 h 0,00 h 523 W/m 11,4 km/h (2 Bft) 95,16 %
01.08.2019 17:00 25,1 C 24,5 C 23,8 C 58 % 1015,8 hPa 0,0 l/m 0,03 h 0,07 h 156 W/m 7,0 km/h (2 Bft) 99,29 %
01.08.2019 18:00 24,7 C 25,1 C 23,7 C 62 % 1015,7 hPa 0,0 l/m 0,73 h 0,00 h 211 W/m 9,7 km/h (2 Bft) 97,86 %
01.08.2019 19:00 23,6 C 23,0 C 22,2 C 67 % 1015,7 hPa 0,0 l/m 0,27 h 0,00 h 105 W/m 6,3 km/h (2 Bft) 96,72 %
01.08.2019 20:00 22,8 C 21,7 C 21,3 C 66 % 1015,9 hPa 0,0 l/m 0,07 h 0,00 h 46 W/m 5,1 km/h (1 Bft) 97,22 %
01.08.2019 21:00 21,7 C 19,1 C 18,8 C 68 % 1016,3 hPa 0,0 l/m 0,03 h 0,00 h 10 W/m 0,2 km/h (0 Bft) 98,08 %
01.08.2019 22:00 20,0 C 17,5 C 16,9 C 74 % 1016,5 hPa 0,0 l/m 0,00 h 0,00 h 0 W/m 0,0 km/h (0 Bft) 97,93 %
01.08.2019 23:00 18,6 C 16,0 C 15,6 C 79 % 1016,6 hPa 0,0 l/m 0,00 h 0,00 h 0 W/m 0,0 km/h (0 Bft) 96,66 %
02.08.2019 00:00 17,3 C 15,2 C 14,8 C 82 % 1016,6 hPa 0,0 l/m 0,00 h 0,00 h 0 W/m 0,0 km/h (0 Bft) 96,45 %
02.08.2019 01:00 16,4 C 14,3 C 14,1 C 84 % 1016,5 hPa 0,0 l/m 0,00 h 0,00 h 0 W/m 0,0 km/h (0 Bft) 98,72 %
02.08.2019 02:00 15,7 C 13,7 C 13,4 C 85 % 1016,2 hPa 0,0 l/m 0,00 h 0,00 h 0 W/m 0,0 km/h (0 Bft) 98,44 %
02.08.2019 03:00 15,0 C 13,3 C 12,8 C 87 % 1016,1 hPa 0,0 l/m 0,00 h 0,00 h 0 W/m 0,0 km/h (0 Bft) 95,23 %
02.08.2019 04:00 14,7 C 13,1 C 12,8 C 89 % 1016,0 hPa 0,0 l/m 0,00 h 0,00 h 0 W/m 0,0 km/h (0 Bft) 98,29 %
02.08.2019 05:00 14,3 C 12,6 C 12,4 C 91 % 1015,9 hPa 0,0 l/m 0,00 h 0,00 h 0 W/m 0,0 km/h (0 Bft) 97,44 %
02.08.2019 06:00 13,9 C 12,7 C 12,3 C 91 % 1015,8 hPa 0,0 l/m 0,00 h 0,00 h 14 W/m 0,0 km/h (0 Bft) 98,34 %
02.08.2019 07:00 14,4 C 15,2 C 14,1 C 94 % 1015,8 hPa 0,0 l/m 0,00 h 0,00 h 41 W/m 0,2 km/h (0 Bft) 93,67 %
02.08.2019 08:00 16,4 C 19,5 C 17,3 C 96 % 1015,8 hPa 0,0 l/m 0,17 h 0,00 h 119 W/m 6,5 km/h (2 Bft) 97,16 %
02.08.2019 09:00 19,4 C 21,2 C 20,5 C 85 % 1015,7 hPa 0,0 l/m 0,23 h 0,00 h 214 W/m 9,3 km/h (2 Bft) 99,57 %
02.08.2019 10:00 21,0 C 23,8 C 23,4 C 78 % 1015,6 hPa 0,0 l/m 0,60 h 0,00 h 389 W/m 11,8 km/h (2 Bft) 97,30 %
02.08.2019 11:00 22,7 C 25,0 C 23,9 C 71 % 1015,5 hPa 0,0 l/m 0,53 h 0,00 h 448 W/m 12,6 km/h (3 Bft) 96,14 %
02.08.2019 12:00 24,0 C 27,1 C 24,8 C 64 % 1015,0 hPa 0,0 l/m 0,63 h 0,00 h 603 W/m 14,3 km/h (3 Bft) 99,08 %
02.08.2019 13:00 25,5 C 29,8 C 29,3 C 58 % 1014,6 hPa 0,0 l/m 0,83 h 0,00 h 767 W/m 16,6 km/h (3 Bft) 96,37 %
02.08.2019 14:00 25,7 C 26,2 C 26,2 C 58 % 1014,4 hPa 0,0 l/m 0,27 h 0,03 h 362 W/m 14,9 km/h (3 Bft) 97,22 %
02.08.2019 15:00 23,3 C 24,6 C 23,6 C 68 % 1014,4 hPa 0,0 l/m 0,47 h 0,00 h 442 W/m 15,6 km/h (3 Bft) 98,36 %
02.08.2019 16:00 23,8 C 24,1 C 23,5 C 66 % 1013,9 hPa 0,0 l/m 0,27 h 0,00 h 259 W/m 17,7 km/h (3 Bft) 97,28 %
02.08.2019 17:00 20,8 C 17,9 C 17,9 C 79 % 1014,0 hPa 12,4 l/m 0,00 h 0,53 h 35 W/m 9,2 km/h (2 Bft) 97,68 %
02.08.2019 18:00 18,4 C 17,1 C 16,9 C 93 % 1013,2 hPa 0,4 l/m 0,00 h 0,37 h 78 W/m 9,2 km/h (2 Bft) 97,28 %
02.08.2019 19:00 18,4 C 17,4 C 16,9 C 95 % 1012,8 hPa 0,0 l/m 0,00 h 0,37 h 66 W/m 11,2 km/h (2 Bft) 98,72 %
02.08.2019 20:00 18,0 C 16,4 C 16,4 C 96 % 1012,2 hPa 0,0 l/m 0,00 h 0,47 h 14 W/m 17,3 km/h (3 Bft) 96,73 %
02.08.2019 21:00 17,4 C 16,1 C 16,1 C 97 % 1013,1 hPa 0,0 l/m 0,00 h 0,10 h 4 W/m 15,0 km/h (3 Bft) 96,09 %
02.08.2019 22:00 17,2 C 16,1 C 15,9 C 97 % 1014,2 hPa 0,0 l/m 0,00 h 0,00 h 0 W/m 7,8 km/h (2 Bft) 99,36 %
02.08.2019 23:00 17,2 C 16,1 C 16,1 C 98 % 1014,8 hPa 0,2 l/m 0,00 h 0,30 h 0 W/m 6,9 km/h (2 Bft) 98,08 %
03.08.2019 00:00 17,3 C 16,0 C 15,9 C 98 % 1015,1 hPa 0,0 l/m 0,00 h 0,00 h 0 W/m 5,4 km/h (1 Bft) 95,50 %
03.08.2019 01:00 16,8 C 15,6 C 15,4 C 98 % 1015,3 hPa 0,0 l/m 0,00 h 0,00 h 0 W/m 5,0 km/h (1 Bft) 99,65 %
03.08.2019 02:00 16,6 C 15,6 C 15,4 C 98 % 1015,4 hPa 0,0 l/m 0,00 h 0,00 h 0 W/m 4,8 km/h (1 Bft) 98,08 %
03.08.2019 03:00 16,7 C 15,6 C 15,6 C 99 % 1015,5 hPa 0,0 l/m 0,00 h 0,00 h 0 W/m 6,2 km/h (2 Bft) 94,95 %
03.08.2019 04:00 16,7 C 15,6 C 15,6 C 99 % 1015,8 hPa 0,0 l/m 0,00 h 0,00 h 0 W/m 3,5 km/h (1 Bft) 99,42 %
03.08.2019 05:00 16,7 C 15,6 C 15,6 C 99 % 1016,2 hPa 0,0 l/m 0,00 h 0,00 h 0 W/m 4,2 km/h (1 Bft) 97,22 %
03.08.2019 06:00 16,5 C 15,6 C 15,4 C 99 % 1016,6 hPa 0,0 l/m 0,00 h 0,00 h 15 W/m 3,1 km/h (1 Bft) 96,12 %
03.08.2019 07:00 16,3 C 15,6 C 15,4 C 99 % 1017,0 hPa 0,0 l/m 0,00 h 0,00 h 35 W/m 2,7 km/h (1 Bft) 97,86 %
03.08.2019 08:00 16,5 C 16,6 C 15,8 C 99 % 1017,3 hPa 0,0 l/m 0,00 h 0,00 h 84 W/m 2,5 km/h (1 Bft) 97,72 %
03.08.2019 09:00 17,6 C 21,5 C 20,3 C 99 % 1017,6 hPa 0,0 l/m 0,50 h 0,00 h 326 W/m 5,1 km/h (1 Bft) 96,44 %
03.08.2019 10:00 20,3 C 24,7 C 24,9 C 87 % 1017,9 hPa 0,0 l/m 0,70 h 0,00 h 496 W/m 9,9 km/h (2 Bft) 96,94 %
03.08.2019 11:00 21,5 C 23,1 C 22,6 C 77 % 1018,3 hPa 0,0 l/m 0,30 h 0,03 h 285 W/m 8,2 km/h (2 Bft) 99,65 %
03.08.2019 12:00 20,3 C 21,3 C 20,1 C 82 % 1018,5 hPa 0,2 l/m 0,00 h 0,00 h 244 W/m 9,4 km/h (2 Bft) 97,28 %
03.08.2019 13:00 21,0 C 23,1 C 21,3 C 79 % 1018,7 hPa 0,0 l/m 0,00 h 0,00 h 330 W/m 9,3 km/h (2 Bft) 95,31 %
03.08.2019 14:00 21,8 C 24,2 C 22,4 C 75 % 1018,8 hPa 0,0 l/m 0,27 h 0,00 h 377 W/m 10,7 km/h (2 Bft) 99,30 %
03.08.2019 15:00 22,0 C 24,1 C 22,0 C 73 % 1018,7 hPa 0,0 l/m 0,43 h 0,00 h 349 W/m 10,5 km/h (2 Bft) 96,87 %
03.08.2019 16:00 22,3 C 24,3 C 22,0 C 74 % 1018,7 hPa 0,0 l/m 1,00 h 0,00 h 369 W/m 11,4 km/h (2 Bft) 98,09 %
03.08.2019 17:00 22,3 C 24,1 C 21,7 C 73 % 1018,4 hPa 0,0 l/m 0,67 h 0,00 h 321 W/m 9,0 km/h (2 Bft) 97,65 %
03.08.2019 18:00 21,7 C 22,0 C 20,8 C 72 % 1018,1 hPa 0,0 l/m 0,00 h 0,00 h 166 W/m 7,4 km/h (2 Bft) 97,68 %
03.08.2019 19:00 21,1 C 20,5 C 19,9 C 75 % 1018,1 hPa 0,0 l/m 0,00 h 0,03 h 74 W/m 7,0 km/h (2 Bft) 98,06 %
03.08.2019 20:00 20,4 C 19,2 C 18,9 C 77 % 1018,0 hPa 0,0 l/m 0,00 h 0,00 h 24 W/m 4,2 km/h (1 Bft) 95,78 %
03.08.2019 21:00 19,8 C 18,3 C 18,0 C 79 % 1018,0 hPa 0,0 l/m 0,00 h 0,00 h 4 W/m 1,6 km/h (1 Bft) 98,89 %
03.08.2019 22:00 19,2 C 17,5 C 17,3 C 81 % 1018,0 hPa 0,0 l/m 0,00 h 0,00 h 0 W/m 0,6 km/h (0 Bft) 97,31 %
03.08.2019 23:00 18,2 C 15,6 C 15,2 C 82 % 1017,9 hPa 0,0 l/m 0,00 h 0,00 h 0 W/m 0,0 km/h (0 Bft) 95,61 %
04.08.2019 00:00 16,7 C 14,1 C 14,0 C 86 % 1018,0 hPa 0,0 l/m 0,00 h 0,00 h 0 W/m 0,0 km/h (0 Bft) 98,97 %
04.08.2019 01:00 15,7 C 13,6 C 13,4 C 88 % 1018,0 hPa 0,0 l/m 0,00 h 0,00 h 0 W/m 0,3 km/h (0 Bft) 97,33 %
04.08.2019 02:00 14,9 C 12,9 C 12,7 C 90 % 1017,8 hPa 0,0 l/m 0,00 h 0,00 h 0 W/m 0,0 km/h (0 Bft) 95,31 %
04.08.2019 03:00 14,3 C 12,4 C 12,2 C 90 % 1017,6 hPa 0,0 l/m 0,00 h 0,00 h 0 W/m 0,0 km/h (0 Bft) 97,97 %
04.08.2019 04:00 13,8 C 12,1 C 12,0 C 91 % 1017,7 hPa 0,0 l/m 0,00 h 0,00 h 0 W/m 0,0 km/h (0 Bft) 97,91 %
04.08.2019 05:00 13,5 C 11,8 C 11,7 C 92 % 1017,5 hPa 0,0 l/m 0,00 h 0,00 h 0 W/m 0,0 km/h (0 Bft) 97,16 %
04.08.2019 06:00 13,1 C 11,8 C 11,8 C 92 % 1017,4 hPa 0,0 l/m 0,00 h 0,00 h 13 W/m 0,0 km/h (0 Bft) 95,29 %
04.08.2019 07:00 13,7 C 13,3 C 13,3 C 95 % 1017,6 hPa 0,0 l/m 0,00 h 0,00 h 36 W/m 1,4 km/h (1 Bft) 99,22 %
04.08.2019 08:00 15,4 C 18,4 C 15,7 C 97 % 1017,7 hPa 0,0 l/m 0,17 h 0,00 h 109 W/m 3,1 km/h (1 Bft) 97,11 %
04.08.2019 09:00 18,8 C 24,7 C 25,3 C 92 % 1017,5 hPa 0,0 l/m 1,00 h 0,00 h 454 W/m 7,3 km/h (2 Bft) 95,91 %
04.08.2019 10:00 22,4 C 27,1 C 28,7 C 73 % 1017,3 hPa 0,0 l/m 1,00 h 0,00 h 641 W/m 10,7 km/h (2 Bft) 97,34 %
04.08.2019 11:00 24,0 C 27,4 C 26,9 C 64 % 1017,0 hPa 0,0 l/m 1,00 h 0,00 h 596 W/m 10,4 km/h (2 Bft) 99,57 %
04.08.2019 12:00 24,0 C 27,9 C 24,8 C 61 % 1016,7 hPa 0,0 l/m 0,73 h 0,00 h 648 W/m 9,8 km/h (2 Bft) 97,40 %
04.08.2019 13:00 25,6 C 31,1 C 29,8 C 57 % 1016,2 hPa 0,0 l/m 1,00 h 0,00 h 823 W/m 11,0 km/h (2 Bft) 95,64 %
04.08.2019 14:00 27,2 C 33,2 C 31,7 C 54 % 1015,5 hPa 0,0 l/m 1,00 h 0,00 h 899 W/m 8,4 km/h (2 Bft) 99,66 %
04.08.2019 15:00 27,8 C 32,7 C 27,4 C 52 % 1014,8 hPa 0,0 l/m 1,00 h 0,00 h 801 W/m 10,3 km/h (2 Bft) 98,65 %
04.08.2019 16:00 28,7 C 32,7 C 27,7 C 49 % 1014,3 hPa 0,0 l/m 1,00 h 0,00 h 656 W/m 8,4 km/h (2 Bft) 94,23 %
04.08.2019 17:00 28,7 C 31,6 C 27,9 C 48 % 1013,8 hPa 0,0 l/m 0,97 h 0,00 h 472 W/m 8,1 km/h (2 Bft) 99,11 %
04.08.2019 18:00 28,3 C 27,5 C 26,0 C 50 % 1013,3 hPa 0,0 l/m 0,00 h 0,00 h 160 W/m 5,0 km/h (1 Bft) 98,09 %
04.08.2019 19:00 27,0 C 26,3 C 24,5 C 57 % 1013,0 hPa 0,0 l/m 0,00 h 0,00 h 107 W/m 1,3 km/h (1 Bft) 96,48 %
04.08.2019 20:00 26,0 C 24,1 C 22,8 C 61 % 1012,8 hPa 0,0 l/m 0,00 h 0,00 h 39 W/m 0,0 km/h (0 Bft) 98,36 %
04.08.2019 21:00 24,0 C 21,3 C 20,3 C 64 % 1012,7 hPa 0,0 l/m 0,00 h 0,00 h 5 W/m 0,0 km/h (0 Bft) 98,01 %
04.08.2019 22:00 22,5 C 20,6 C 19,6 C 67 % 1012,6 hPa 0,0 l/m 0,00 h 0,00 h 0 W/m 0,0 km/h (0 Bft) 97,93 %
04.08.2019 23:00 21,8 C 20,2 C 19,4 C 70 % 1012,3 hPa 0,0 l/m 0,00 h 0,03 h 0 W/m 0,0 km/h (0 Bft) 97,22 %
Min-Datum _ 04.08.19 04.08.19 04.08.19 30.07.19 29.07.19 - - - - 29.07.19 02.08.19
_ Min-Zeit 06:38 04:42 04:38 15:00 00:02 - - - - 00:04 07:00
Minimum _ 13,0 C 11,7 C 11,7 C 39 % 1009,4 hPa - - - - 0,0 km/h (0 Bft) 13,04 %
Max-Datum _ 30.07.19 30.07.19 30.07.19 03.08.19 03.08.19 02.08.19 29.07.19 02.08.19 31.07.19 31.07.19 29.07.19
_ Max-Zeit 13:32 13:00 13:24 02:46 13:52 17:26 09:08 19:56 14:48 13:44 00:36
Maximum _ 31,4 C 37,2 C 37,2 C 99 % 1018,9 hPa 12,4 l/m 0,07 h 0,05 h 1124 W/m 41,8 km/h
S-SO (6 Bft)
100,00 %
Durchschnitt _ 20,8 C 21,2 C 20,5 C 73 % 1014,7 hPa #13,2 l/m #45:52 h #2:32 h 322 W/m 7,7 km/h (2 Bft) 97,46 %
© 2019 W. Hausmann